createdAt,value
2023-05-08T00:00:24.279Z,20.91
2023-05-08T00:02:31.825Z,20.88
2023-05-08T00:04:37.028Z,20.87
2023-05-08T00:06:41.883Z,20.85
2023-05-08T00:08:46.694Z,20.83
2023-05-08T00:10:51.702Z,20.82
2023-05-08T00:12:56.693Z,20.80
2023-05-08T00:15:01.758Z,20.79
2023-05-08T00:17:06.665Z,20.78
2023-05-08T00:19:14.243Z,20.77
2023-05-08T00:21:18.957Z,20.77
2023-05-08T00:23:24.041Z,20.77
2023-05-08T00:25:31.501Z,20.75
2023-05-08T00:27:36.399Z,20.73
2023-05-08T00:29:41.701Z,20.72
2023-05-08T00:31:46.606Z,20.72
2023-05-08T00:33:51.502Z,20.70
2023-05-08T00:36:04.327Z,20.68
2023-05-08T00:38:09.130Z,20.66
2023-05-08T00:40:14.936Z,20.66
2023-05-08T00:42:20.354Z,20.63
2023-05-08T00:44:25.219Z,20.62
2023-05-08T00:46:30.423Z,20.61
2023-05-08T00:48:37.936Z,20.60
2023-05-08T00:50:42.916Z,20.60
2023-05-08T00:52:50.463Z,20.58
2023-05-08T00:54:55.277Z,20.57
2023-05-08T00:57:00.149Z,20.58
2023-05-08T00:59:06.522Z,20.58
2023-05-08T01:01:11.690Z,20.58
2023-05-08T01:03:17.451Z,20.60
2023-05-08T01:05:22.504Z,20.60
2023-05-08T01:07:27.816Z,20.59
2023-05-08T01:09:36.175Z,20.56
2023-05-08T01:11:47.435Z,20.57
2023-05-08T01:13:58.403Z,20.56
2023-05-08T01:16:10.728Z,20.56
2023-05-08T01:18:20.240Z,20.57
2023-05-08T01:20:37.636Z,20.57
2023-05-08T01:23:04.022Z,20.55
2023-05-08T01:25:44.446Z,20.52
2023-05-08T01:28:11.059Z,20.49
2023-05-08T01:30:32.308Z,20.47
2023-05-08T01:32:43.393Z,20.45
2023-05-08T01:34:58.808Z,20.45
2023-05-08T01:37:05.744Z,20.43
2023-05-08T01:39:23.209Z,20.40
2023-05-08T01:41:31.087Z,20.38
2023-05-08T01:43:55.165Z,20.36
2023-05-08T01:46:02.263Z,20.34
2023-05-08T01:48:14.785Z,20.33
2023-05-08T01:50:23.209Z,20.25
2023-05-08T01:52:34.748Z,20.25
2023-05-08T01:54:45.862Z,20.26
2023-05-08T01:56:51.754Z,20.27
2023-05-08T01:58:59.716Z,20.25
2023-05-08T02:01:05.350Z,20.24
2023-05-08T02:03:16.605Z,20.23
2023-05-08T02:05:23.780Z,20.22
2023-05-08T02:07:29.802Z,20.20
2023-05-08T02:09:35.181Z,20.19
2023-05-08T02:11:42.274Z,20.18
2023-05-08T02:13:50.047Z,20.16
2023-05-08T02:15:57.359Z,20.14
2023-05-08T02:18:03.074Z,20.16
2023-05-08T02:20:15.343Z,20.14
2023-05-08T02:22:22.885Z,20.13
2023-05-08T02:24:28.763Z,20.12
2023-05-08T02:26:35.763Z,20.11
2023-05-08T02:28:42.882Z,20.10
2023-05-08T02:30:48.839Z,20.09
2023-05-08T02:32:58.161Z,20.09
2023-05-08T02:35:06.756Z,20.07
2023-05-08T02:37:16.035Z,20.03
2023-05-08T02:39:22.201Z,20.02
2023-05-08T02:41:31.765Z,19.99
2023-05-08T02:43:36.910Z,19.97
2023-05-08T02:45:48.834Z,19.92
2023-05-08T02:48:03.079Z,19.90
2023-05-08T02:50:16.471Z,19.85
2023-05-08T02:52:32.238Z,19.82
2023-05-08T02:54:43.585Z,19.81
2023-05-08T02:56:58.596Z,19.79
2023-05-08T02:59:12.974Z,19.78
2023-05-08T03:01:24.668Z,19.75
2023-05-08T03:03:38.256Z,19.73
2023-05-08T03:05:50.037Z,19.70
2023-05-08T03:08:02.604Z,19.70
2023-05-08T03:10:14.022Z,19.68
2023-05-08T03:12:23.776Z,19.67
2023-05-08T03:14:32.868Z,19.65
2023-05-08T03:16:41.716Z,19.62
2023-05-08T03:18:54.358Z,19.59
2023-05-08T03:21:02.371Z,19.57
2023-05-08T03:23:11.957Z,19.54
2023-05-08T03:25:19.788Z,19.54
2023-05-08T03:27:26.568Z,19.52
2023-05-08T03:29:32.281Z,19.50
2023-05-08T03:31:39.392Z,19.49
2023-05-08T03:33:47.239Z,19.46
2023-05-08T03:35:54.038Z,19.43
2023-05-08T03:37:58.994Z,19.42
2023-05-08T03:40:06.759Z,19.40
2023-05-08T03:42:21.307Z,19.38
2023-05-08T03:44:27.500Z,19.35
2023-05-08T03:46:34.459Z,19.32
2023-05-08T03:48:41.441Z,19.31
2023-05-08T03:50:47.233Z,19.28
2023-05-08T03:52:53.175Z,19.26
2023-05-08T03:54:58.251Z,19.23
2023-05-08T03:57:06.070Z,19.19
2023-05-08T03:59:17.967Z,19.17
2023-05-08T04:01:28.406Z,19.16
2023-05-08T04:03:44.634Z,19.14
2023-05-08T04:05:54.929Z,19.12
2023-05-08T04:08:06.935Z,19.11
2023-05-08T04:10:16.570Z,19.07
2023-05-08T04:12:29.436Z,19.07
2023-05-08T04:14:41.338Z,19.05
2023-05-08T04:16:52.787Z,19.06
2023-05-08T04:19:02.634Z,19.05
2023-05-08T04:21:13.682Z,19.05
2023-05-08T04:23:23.633Z,19.07
2023-05-08T04:25:31.632Z,19.09
2023-05-08T04:27:40.172Z,19.09
2023-05-08T04:29:45.978Z,19.09
2023-05-08T04:31:51.766Z,19.08
2023-05-08T04:33:57.517Z,19.09
2023-05-08T04:36:04.477Z,19.09
2023-05-08T04:38:11.154Z,19.08
2023-05-08T04:40:16.373Z,19.07
2023-05-08T04:42:22.196Z,19.05
2023-05-08T04:44:29.889Z,19.04
2023-05-08T04:46:34.976Z,19.04
2023-05-08T04:48:39.943Z,19.01
2023-05-08T04:50:44.977Z,18.98
2023-05-08T04:52:49.901Z,18.95
2023-05-08T04:54:55.184Z,18.93
2023-05-08T04:57:00.938Z,18.92
2023-05-08T04:59:06.904Z,18.90
2023-05-08T05:01:14.561Z,18.88
2023-05-08T05:03:19.960Z,18.87
2023-05-08T05:05:24.896Z,18.87
2023-05-08T05:07:29.951Z,18.86
2023-05-08T05:09:37.182Z,18.85
2023-05-08T05:11:42.920Z,18.81
2023-05-08T05:13:47.924Z,18.81
2023-05-08T05:15:54.632Z,18.79
2023-05-08T05:18:03.721Z,18.76
2023-05-08T05:20:10.434Z,18.72
2023-05-08T05:22:15.512Z,18.67
2023-05-08T05:24:20.481Z,18.64
2023-05-08T05:26:25.580Z,18.60
2023-05-08T05:28:30.990Z,18.59
2023-05-08T05:30:37.316Z,18.59
2023-05-08T05:32:42.532Z,18.57
2023-05-08T05:34:50.139Z,18.54
2023-05-08T05:36:55.647Z,18.55
2023-05-08T05:39:00.542Z,18.55
2023-05-08T05:41:05.436Z,18.54
2023-05-08T05:43:10.623Z,18.53
2023-05-08T05:45:16.022Z,18.53
2023-05-08T05:47:21.075Z,18.53
2023-05-08T05:49:26.070Z,18.55
2023-05-08T05:51:34.021Z,18.55
2023-05-08T05:53:39.317Z,18.56
2023-05-08T05:55:44.400Z,18.55
2023-05-08T05:57:49.318Z,18.55
2023-05-08T05:59:54.947Z,18.52
2023-05-08T06:02:00.654Z,18.53
2023-05-08T06:04:05.808Z,18.52
2023-05-08T06:06:11.714Z,18.50
2023-05-08T06:08:19.368Z,18.48
2023-05-08T06:10:24.251Z,18.49
2023-05-08T06:12:29.293Z,18.49
2023-05-08T06:14:34.086Z,18.48
2023-05-08T06:16:38.971Z,18.47
2023-05-08T06:18:44.355Z,18.43
2023-05-08T06:20:49.210Z,18.41
2023-05-08T06:22:54.556Z,18.38
2023-05-08T06:25:02.388Z,18.34
2023-05-08T06:27:07.376Z,18.33
2023-05-08T06:29:12.273Z,18.30
2023-05-08T06:31:17.810Z,18.28
2023-05-08T06:33:24.677Z,18.24
2023-05-08T06:35:31.006Z,18.23
2023-05-08T06:37:36.074Z,18.21
2023-05-08T06:39:40.963Z,18.22
2023-05-08T06:41:50.524Z,18.19
2023-05-08T06:44:04.369Z,18.19
2023-05-08T06:46:09.206Z,18.17
2023-05-08T06:48:14.130Z,18.18
2023-05-08T06:50:18.886Z,18.19
2023-05-08T06:52:25.927Z,18.20
2023-05-08T06:54:30.990Z,18.20
2023-05-08T06:56:36.025Z,18.20
2023-05-08T06:58:46.322Z,18.20
2023-05-08T07:00:55.829Z,18.20
2023-05-08T07:03:00.629Z,18.20
2023-05-08T07:05:06.154Z,18.20
2023-05-08T07:07:11.890Z,18.23
2023-05-08T07:09:17.496Z,18.26
2023-05-08T07:11:22.344Z,18.27
2023-05-08T07:13:27.227Z,18.30
2023-05-08T07:15:34.756Z,18.34
2023-05-08T07:17:39.846Z,18.37
2023-05-08T07:19:46.181Z,18.41
2023-05-08T07:21:51.002Z,18.42
2023-05-08T07:23:56.079Z,18.44
2023-05-08T07:26:01.361Z,18.47
2023-05-08T07:28:06.540Z,18.52
2023-05-08T07:30:12.474Z,18.58
2023-05-08T07:32:19.878Z,18.60
2023-05-08T07:34:24.810Z,18.65
2023-05-08T07:36:29.630Z,18.68
2023-05-08T07:38:34.410Z,18.70
2023-05-08T07:40:39.565Z,18.72
2023-05-08T07:42:45.586Z,18.74
2023-05-08T07:44:54.914Z,18.78
2023-05-08T07:47:00.522Z,18.81
2023-05-08T07:49:08.053Z,18.88
2023-05-08T07:51:13.852Z,18.93
2023-05-08T07:53:18.752Z,19.00
2023-05-08T07:55:24.530Z,19.08
2023-05-08T07:57:29.304Z,19.15
2023-05-08T07:59:34.701Z,19.20
2023-05-08T08:01:40.105Z,19.26
2023-05-08T08:03:45.322Z,19.32
2023-05-08T08:05:53.099Z,19.39
2023-05-08T08:07:58.317Z,19.44
2023-05-08T08:10:03.804Z,19.50
2023-05-08T08:12:08.846Z,19.57
2023-05-08T08:14:13.575Z,19.65
2023-05-08T08:16:18.389Z,19.74
2023-05-08T08:18:23.308Z,19.83
2023-05-08T08:20:28.364Z,19.97
2023-05-08T08:22:36.746Z,20.13
2023-05-08T08:24:42.260Z,20.30
2023-05-08T08:26:48.143Z,20.45
2023-05-08T08:28:53.124Z,20.62
2023-05-08T08:30:57.993Z,20.79
2023-05-08T08:33:03.799Z,20.95
2023-05-08T08:35:09.572Z,21.06
2023-05-08T08:37:14.640Z,21.14
2023-05-08T08:39:23.173Z,21.23
2023-05-08T08:41:28.445Z,21.33
2023-05-08T08:43:33.345Z,21.40
2023-05-08T08:45:39.624Z,21.46
2023-05-08T08:47:48.642Z,21.51
2023-05-08T08:49:54.522Z,21.57
2023-05-08T08:52:02.605Z,21.63
2023-05-08T08:54:12.611Z,21.69
2023-05-08T08:56:20.845Z,21.75
2023-05-08T08:58:36.681Z,21.80
2023-05-08T09:00:45.044Z,21.83
2023-05-08T09:02:50.430Z,21.87
2023-05-08T09:04:55.877Z,21.90
2023-05-08T09:07:03.237Z,21.95
2023-05-08T09:09:08.379Z,22.01
2023-05-08T09:11:13.451Z,22.06
2023-05-08T09:13:21.559Z,22.13
2023-05-08T09:15:26.829Z,22.21
2023-05-08T09:17:31.801Z,22.25
2023-05-08T09:19:37.695Z,22.31
2023-05-08T09:21:43.302Z,22.35
2023-05-08T09:24:07.458Z,22.39
2023-05-08T09:26:12.459Z,22.40
2023-05-08T09:28:24.793Z,22.41
2023-05-08T09:30:29.973Z,22.45
2023-05-08T09:32:36.986Z,22.50
2023-05-08T09:34:42.205Z,22.56
2023-05-08T09:36:47.425Z,22.60
2023-05-08T09:38:52.532Z,22.65
2023-05-08T09:41:09.641Z,22.70
2023-05-08T09:43:18.120Z,22.72
2023-05-08T09:45:35.653Z,22.71
2023-05-08T09:47:41.659Z,22.69
2023-05-08T09:50:03.077Z,22.65
2023-05-08T09:52:08.716Z,22.58
2023-05-08T09:54:21.349Z,22.48
2023-05-08T09:56:42.399Z,22.44
2023-05-08T09:58:47.884Z,22.39
2023-05-08T10:00:55.520Z,22.34
2023-05-08T10:03:02.485Z,22.28
2023-05-08T10:05:08.666Z,22.22
2023-05-08T10:07:13.913Z,22.21
2023-05-08T10:09:19.161Z,22.20
2023-05-08T10:11:24.101Z,22.18
2023-05-08T10:13:29.247Z,22.18
2023-05-08T10:15:34.866Z,22.19
2023-05-08T10:17:52.706Z,22.20
2023-05-08T10:20:04.064Z,22.19
2023-05-08T10:22:14.002Z,22.20
2023-05-08T10:24:20.835Z,22.24
2023-05-08T10:26:30.286Z,22.28
2023-05-08T10:28:40.331Z,22.31
2023-05-08T10:30:50.981Z,22.35
2023-05-08T10:33:01.460Z,22.40
2023-05-08T10:35:08.283Z,22.46
2023-05-08T10:37:14.164Z,22.50
2023-05-08T10:39:19.828Z,22.51
2023-05-08T10:41:25.064Z,22.51
2023-05-08T10:43:33.340Z,22.51
2023-05-08T10:45:39.056Z,22.49
2023-05-08T10:47:54.203Z,22.49
2023-05-08T10:50:08.519Z,22.49
2023-05-08T10:52:21.300Z,22.50
2023-05-08T10:54:34.056Z,22.51
2023-05-08T10:56:41.077Z,22.55
2023-05-08T10:58:45.894Z,22.60
2023-05-08T11:01:19.124Z,22.63
2023-05-08T11:03:32.248Z,22.65
2023-05-08T11:05:51.904Z,22.70
2023-05-08T11:07:57.816Z,22.76
2023-05-08T11:10:15.722Z,22.79
2023-05-08T11:12:26.646Z,22.81
2023-05-08T11:14:32.565Z,22.86
2023-05-08T11:17:08.127Z,22.90
2023-05-08T11:19:20.202Z,22.89
2023-05-08T11:21:27.884Z,22.89
2023-05-08T11:23:34.041Z,22.91
2023-05-08T11:25:47.945Z,22.91
2023-05-08T11:28:15.973Z,22.96
2023-05-08T11:30:29.393Z,22.95
2023-05-08T11:33:02.907Z,22.95
2023-05-08T11:35:11.737Z,22.88
2023-05-08T11:37:24.439Z,22.91
2023-05-08T11:39:29.368Z,22.96
2023-05-08T11:41:34.224Z,22.98
2023-05-08T11:44:20.735Z,22.99
2023-05-08T11:46:25.789Z,22.98
2023-05-08T11:48:30.694Z,22.99
2023-05-08T11:50:38.989Z,22.98
2023-05-08T11:52:46.617Z,22.98
2023-05-08T11:54:51.825Z,22.99
2023-05-08T11:56:57.806Z,23.00
2023-05-08T11:59:08.927Z,23.01
2023-05-08T12:01:13.916Z,23.04
2023-05-08T12:03:21.693Z,23.04
2023-05-08T12:05:30.208Z,23.03
2023-05-08T12:07:35.234Z,23.06
2023-05-08T12:09:42.692Z,23.08
2023-05-08T12:11:48.368Z,23.13
2023-05-08T12:13:54.305Z,23.14
2023-05-08T12:16:01.178Z,23.16
2023-05-08T12:18:06.230Z,23.16
2023-05-08T12:20:16.142Z,23.17
2023-05-08T12:22:21.852Z,23.19
2023-05-08T12:24:28.228Z,23.18
2023-05-08T12:26:38.196Z,23.19
2023-05-08T12:28:43.201Z,23.23
2023-05-08T12:30:48.150Z,23.24
2023-05-08T12:32:54.163Z,23.24
2023-05-08T12:34:59.871Z,23.24
2023-05-08T12:37:06.238Z,23.23
2023-05-08T12:39:16.044Z,23.22
2023-05-08T12:41:26.647Z,23.20
2023-05-08T12:43:37.961Z,23.18
2023-05-08T12:45:45.504Z,23.18
2023-05-08T12:47:51.406Z,23.18
2023-05-08T12:50:00.848Z,23.17
2023-05-08T12:52:07.214Z,23.20
2023-05-08T12:54:12.044Z,23.21
2023-05-08T12:56:17.156Z,23.21
2023-05-08T12:58:23.468Z,23.22
2023-05-08T13:00:38.201Z,23.20
2023-05-08T13:02:49.538Z,23.21
2023-05-08T13:04:57.349Z,23.18
2023-05-08T13:07:02.340Z,23.15
2023-05-08T13:09:07.496Z,23.14
2023-05-08T13:11:13.114Z,23.12
2023-05-08T13:13:20.031Z,23.10
2023-05-08T13:15:24.918Z,23.09
2023-05-08T13:17:32.350Z,23.08
2023-05-08T13:19:37.469Z,23.08
2023-05-08T13:21:42.263Z,23.09
2023-05-08T13:23:47.074Z,23.09
2023-05-08T13:25:52.124Z,23.09
2023-05-08T13:27:57.004Z,23.08
2023-05-08T13:30:01.817Z,23.06
2023-05-08T13:32:07.042Z,23.04
2023-05-08T13:34:15.244Z,23.00
2023-05-08T13:36:20.901Z,22.99
2023-05-08T13:38:25.942Z,22.95
2023-05-08T13:40:31.478Z,22.93
2023-05-08T13:42:36.237Z,22.90
2023-05-08T13:44:40.992Z,22.88
2023-05-08T13:46:46.223Z,22.89
2023-05-08T13:48:51.049Z,22.90
2023-05-08T13:50:58.465Z,22.89
2023-05-08T13:53:03.344Z,22.90
2023-05-08T13:55:09.564Z,22.90
2023-05-08T13:57:14.473Z,22.90
2023-05-08T13:59:19.206Z,22.90
2023-05-08T14:01:26.826Z,22.91
2023-05-08T14:03:32.190Z,22.90
2023-05-08T14:05:37.553Z,22.91
2023-05-08T14:07:45.326Z,22.89
2023-05-08T14:09:50.378Z,22.89
2023-05-08T14:11:55.345Z,22.90
2023-05-08T14:14:00.342Z,22.91
2023-05-08T14:16:08.398Z,22.91
2023-05-08T14:18:13.414Z,22.94
2023-05-08T14:20:18.223Z,22.94
2023-05-08T14:22:23.217Z,22.96
2023-05-08T14:24:30.586Z,22.97
2023-05-08T14:26:35.476Z,22.99
2023-05-08T14:28:40.495Z,23.01
2023-05-08T14:30:45.307Z,23.01
2023-05-08T14:32:50.169Z,23.01
2023-05-08T14:34:55.096Z,23.01
2023-05-08T14:36:59.822Z,23.01
2023-05-08T14:39:04.645Z,23.01
2023-05-08T14:41:12.526Z,23.01
2023-05-08T14:43:17.545Z,23.02
2023-05-08T14:45:22.576Z,23.02
2023-05-08T14:47:27.516Z,23.01
2023-05-08T14:49:38.062Z,23.03
2023-05-08T14:51:44.338Z,23.03
2023-05-08T14:53:49.445Z,23.03
2023-05-08T14:55:54.968Z,23.04
2023-05-08T14:58:03.012Z,23.03
2023-05-08T15:00:10.236Z,23.01
2023-05-08T15:02:15.637Z,23.00
2023-05-08T15:04:20.783Z,22.99
2023-05-08T15:06:31.356Z,22.98
2023-05-08T15:08:36.369Z,22.96
2023-05-08T15:10:41.178Z,22.94
2023-05-08T15:12:45.967Z,22.93
2023-05-08T15:14:53.619Z,22.90
2023-05-08T15:16:58.466Z,22.90
2023-05-08T15:19:03.311Z,22.90
2023-05-08T15:21:08.669Z,22.88
2023-05-08T15:23:13.695Z,22.87
2023-05-08T15:25:18.636Z,22.86
2023-05-08T15:27:23.467Z,22.86
2023-05-08T15:29:28.574Z,22.84
2023-05-08T15:31:36.090Z,22.80
2023-05-08T15:33:45.233Z,22.78
2023-05-08T15:35:50.341Z,22.77
2023-05-08T15:37:55.192Z,22.76
2023-05-08T15:40:00.028Z,22.75
2023-05-08T15:42:04.899Z,22.73
2023-05-08T15:44:09.778Z,22.73
2023-05-08T15:46:14.568Z,22.70
2023-05-08T15:48:21.980Z,22.65
2023-05-08T15:50:26.750Z,22.63
2023-05-08T15:52:31.496Z,22.62
2023-05-08T15:54:36.306Z,22.60
2023-05-08T15:56:41.172Z,22.58
2023-05-08T15:58:46.135Z,22.57
2023-05-08T16:00:51.042Z,22.56
2023-05-08T16:02:55.978Z,22.55
2023-05-08T16:05:03.406Z,22.52
2023-05-08T16:07:08.455Z,22.51
2023-05-08T16:09:13.401Z,22.49
2023-05-08T16:11:18.258Z,22.47
2023-05-08T16:13:23.122Z,22.45
2023-05-08T16:15:27.985Z,22.44
2023-05-08T16:17:32.850Z,22.41
2023-05-08T16:19:40.820Z,22.37
2023-05-08T16:21:48.573Z,22.34
2023-05-08T16:23:53.659Z,22.34
2023-05-08T16:25:58.661Z,22.31
2023-05-08T16:28:03.689Z,22.30
2023-05-08T16:30:10.402Z,22.29
2023-05-08T16:32:16.601Z,22.26
2023-05-08T16:34:21.499Z,22.25
2023-05-08T16:36:26.950Z,22.23
2023-05-08T16:38:34.384Z,22.20
2023-05-08T16:40:39.420Z,22.18
2023-05-08T16:42:44.194Z,22.17
2023-05-08T16:44:49.021Z,22.14
2023-05-08T16:46:54.159Z,22.12
2023-05-08T16:48:59.035Z,22.09
2023-05-08T16:51:03.809Z,22.09
2023-05-08T16:53:08.786Z,22.07
2023-05-08T16:55:16.463Z,22.05
2023-05-08T16:57:21.442Z,22.03
2023-05-08T16:59:26.424Z,22.00
2023-05-08T17:01:31.416Z,21.98
2023-05-08T17:03:37.108Z,21.97
2023-05-08T17:05:42.250Z,21.95
2023-05-08T17:07:47.032Z,21.93
2023-05-08T17:09:53.274Z,21.93
2023-05-08T17:12:02.026Z,21.92
2023-05-08T17:14:07.069Z,21.90
2023-05-08T17:16:12.210Z,21.87
2023-05-08T17:18:17.046Z,21.86
2023-05-08T17:20:22.425Z,21.84
2023-05-08T17:22:27.441Z,21.81
2023-05-08T17:24:32.826Z,21.79
2023-05-08T17:26:37.613Z,21.78
2023-05-08T17:28:45.086Z,21.76
2023-05-08T17:30:49.883Z,21.76
2023-05-08T17:32:54.920Z,21.76
2023-05-08T17:34:59.997Z,21.76
2023-05-08T17:37:04.856Z,21.73
2023-05-08T17:39:09.906Z,21.74
2023-05-08T17:41:14.891Z,21.72
2023-05-08T17:43:20.685Z,21.72
2023-05-08T17:45:28.600Z,21.71
2023-05-08T17:47:33.764Z,21.68
2023-05-08T17:49:38.514Z,21.68
2023-05-08T17:51:44.090Z,21.66
2023-05-08T17:53:48.917Z,21.65
2023-05-08T17:55:54.337Z,21.63
2023-05-08T17:57:59.098Z,21.58
2023-05-08T18:00:03.998Z,21.58
2023-05-08T18:02:16.069Z,21.56
2023-05-08T18:04:21.313Z,21.55
2023-05-08T18:06:26.233Z,21.56
2023-05-08T18:08:31.140Z,21.55
2023-05-08T18:10:39.536Z,21.55
2023-05-08T18:12:44.493Z,21.55
2023-05-08T18:14:49.444Z,21.54
2023-05-08T18:16:54.219Z,21.54
2023-05-08T18:19:01.636Z,21.55
2023-05-08T18:21:07.139Z,21.55
2023-05-08T18:23:11.971Z,21.55
2023-05-08T18:25:17.209Z,21.54
2023-05-08T18:27:22.100Z,21.53
2023-05-08T18:29:26.930Z,21.54
2023-05-08T18:31:31.760Z,21.53
2023-05-08T18:33:37.295Z,21.53
2023-05-08T18:35:45.080Z,21.51
2023-05-08T18:37:50.095Z,21.52
2023-05-08T18:39:55.217Z,21.50
2023-05-08T18:42:00.044Z,21.49
2023-05-08T18:44:05.479Z,21.49
2023-05-08T18:46:12.455Z,21.47
2023-05-08T18:48:17.366Z,21.47
2023-05-08T18:50:22.593Z,21.43
2023-05-08T18:52:30.489Z,21.41
2023-05-08T18:54:35.371Z,21.40
2023-05-08T18:56:40.688Z,21.37
2023-05-08T18:58:46.814Z,21.34
2023-05-08T19:00:51.713Z,21.32
2023-05-08T19:02:56.775Z,21.31
2023-05-08T19:05:01.757Z,21.28
2023-05-08T19:07:06.680Z,21.26
2023-05-08T19:09:14.189Z,21.25
2023-05-08T19:11:19.080Z,21.25
2023-05-08T19:13:24.205Z,21.22
2023-05-08T19:15:29.381Z,21.21
2023-05-08T19:17:35.634Z,21.19
2023-05-08T19:19:40.726Z,21.18
2023-05-08T19:21:45.768Z,21.17
2023-05-08T19:23:51.193Z,21.17
2023-05-08T19:25:58.692Z,21.14
2023-05-08T19:28:04.266Z,21.13
2023-05-08T19:30:10.556Z,21.12
2023-05-08T19:32:15.663Z,21.10
2023-05-08T19:34:20.866Z,21.09
2023-05-08T19:36:25.741Z,21.08
2023-05-08T19:38:30.550Z,21.06
2023-05-08T19:40:48.058Z,21.05
2023-05-08T19:42:59.866Z,21.00
2023-05-08T19:45:05.012Z,20.98
2023-05-08T19:47:09.958Z,20.97
2023-05-08T19:49:17.418Z,20.97
2023-05-08T19:51:22.314Z,20.95
2023-05-08T19:53:27.262Z,20.94
2023-05-08T19:55:32.269Z,20.91
2023-05-08T19:57:37.484Z,20.90
2023-05-08T19:59:44.987Z,20.88
2023-05-08T20:01:50.627Z,20.86
2023-05-08T20:03:57.415Z,20.85
2023-05-08T20:06:04.242Z,20.82
2023-05-08T20:08:09.486Z,20.80
2023-05-08T20:10:15.120Z,20.80
2023-05-08T20:12:20.544Z,20.77
2023-05-08T20:14:25.767Z,20.74
2023-05-08T20:16:33.553Z,20.69
2023-05-08T20:18:38.609Z,20.67
2023-05-08T20:20:45.249Z,20.62
2023-05-08T20:22:50.672Z,20.58
2023-05-08T20:24:55.533Z,20.54
2023-05-08T20:27:00.772Z,20.51
2023-05-08T20:29:05.570Z,20.48
2023-05-08T20:31:10.693Z,20.45
2023-05-08T20:33:19.030Z,20.41
2023-05-08T20:35:24.122Z,20.38
2023-05-08T20:37:29.103Z,20.36
2023-05-08T20:39:34.167Z,20.32
2023-05-08T20:41:39.010Z,20.32
2023-05-08T20:43:43.942Z,20.30
2023-05-08T20:45:49.386Z,20.30
2023-05-08T20:47:54.345Z,20.29
2023-05-08T20:50:01.975Z,20.28
2023-05-08T20:52:07.482Z,20.28
2023-05-08T20:54:12.436Z,20.26
2023-05-08T20:56:18.921Z,20.25
2023-05-08T20:58:24.125Z,20.24
2023-05-08T21:00:29.213Z,20.23
2023-05-08T21:02:34.426Z,20.21
2023-05-08T21:04:39.446Z,20.20
2023-05-08T21:06:46.933Z,20.18
2023-05-08T21:08:52.460Z,20.17
2023-05-08T21:10:57.437Z,20.17
2023-05-08T21:13:02.486Z,20.13
2023-05-08T21:15:08.369Z,20.11
2023-05-08T21:17:13.326Z,20.08
2023-05-08T21:19:18.517Z,20.05
2023-05-08T21:21:23.592Z,20.01
2023-05-08T21:23:32.597Z,19.97
2023-05-08T21:25:37.849Z,19.94
2023-05-08T21:27:42.715Z,19.92
2023-05-08T21:29:47.511Z,19.89
2023-05-08T21:31:52.348Z,19.87
2023-05-08T21:33:57.500Z,19.84
2023-05-08T21:36:03.851Z,19.81
2023-05-08T21:38:08.699Z,19.79
2023-05-08T21:40:16.362Z,19.74
2023-05-08T21:42:21.244Z,19.73
2023-05-08T21:44:26.024Z,19.69
2023-05-08T21:46:31.215Z,19.67
2023-05-08T21:48:36.533Z,19.65
2023-05-08T21:50:41.508Z,19.64
2023-05-08T21:52:46.440Z,19.64
2023-05-08T21:54:51.614Z,19.63
2023-05-08T21:56:59.151Z,19.61
2023-05-08T21:59:04.087Z,19.60
2023-05-08T22:01:09.306Z,19.60
2023-05-08T22:03:14.485Z,19.58
2023-05-08T22:05:19.449Z,19.57
2023-05-08T22:07:24.601Z,19.54
2023-05-08T22:09:29.955Z,19.54
2023-05-08T22:11:35.085Z,19.52
2023-05-08T22:13:42.677Z,19.52
2023-05-08T22:15:47.842Z,19.52
2023-05-08T22:17:52.904Z,19.51
2023-05-08T22:19:58.010Z,19.49
2023-05-08T22:22:02.889Z,19.47
2023-05-08T22:24:09.203Z,19.45
2023-05-08T22:26:14.176Z,19.43
2023-05-08T22:28:19.067Z,19.40
2023-05-08T22:30:27.069Z,19.36
2023-05-08T22:32:32.287Z,19.34
2023-05-08T22:34:37.383Z,19.33
2023-05-08T22:36:42.254Z,19.30
2023-05-08T22:38:47.343Z,19.29
2023-05-08T22:40:52.921Z,19.27
2023-05-08T22:42:59.346Z,19.24
2023-05-08T22:45:04.740Z,19.22
2023-05-08T22:47:12.868Z,19.19
2023-05-08T22:49:18.176Z,19.16
2023-05-08T22:51:23.206Z,19.15
2023-05-08T22:53:28.436Z,19.12
2023-05-08T22:55:33.354Z,19.11
2023-05-08T22:57:38.199Z,19.07
2023-05-08T22:59:43.015Z,19.05
2023-05-08T23:01:48.016Z,19.02
2023-05-08T23:03:56.872Z,19.00
2023-05-08T23:06:01.894Z,18.94
2023-05-08T23:08:06.936Z,18.91
2023-05-08T23:10:14.557Z,18.90
2023-05-08T23:12:19.471Z,18.86
2023-05-08T23:14:24.547Z,18.82
2023-05-08T23:16:29.591Z,18.79
2023-05-08T23:18:34.704Z,18.76
2023-05-08T23:20:42.265Z,18.72
2023-05-08T23:22:47.187Z,18.69
2023-05-08T23:24:51.976Z,18.67
2023-05-08T23:26:57.302Z,18.64
2023-05-08T23:29:02.133Z,18.62
2023-05-08T23:31:07.410Z,18.61
2023-05-08T23:33:12.256Z,18.59
2023-05-08T23:35:17.253Z,18.58
2023-05-08T23:37:25.252Z,18.56
2023-05-08T23:39:30.465Z,18.56
2023-05-08T23:41:36.248Z,18.54
2023-05-08T23:43:41.193Z,18.53
2023-05-08T23:45:46.317Z,18.51
2023-05-08T23:47:51.343Z,18.48
2023-05-08T23:49:56.252Z,18.46
2023-05-08T23:52:01.219Z,18.45
2023-05-08T23:54:08.834Z,18.44
2023-05-08T23:56:14.048Z,18.42
2023-05-08T23:58:19.008Z,18.42
